KFPR

Treasure Coast International Airport

Fort Pierce, Florida, USA
METAR KFPR 191053Z 00000KT 8SM CLR 22/22 A2995 RMK AO2 SLP141 T02170217
Observed Flight Rules
Sep-19 @ 10:53 UTC (11 minutes ago) Visual Flight Rules
Visibility Clouds
8 miles
  • Clear skies
Temperatures Readings
Current 22°C / 72°F
Dewpoint 22°C / 72°F
Humidity 100%
Altimeter 29.95" Hg
Pressure 1014.1 hPa
Elevation 13
METAR KFPR 191053Z 00000KT 8SM CLR 22/22 A2995 RMK AO2 SLP141 T02170217
Observed Flight Rules
Sep-19 @ 10:53 UTC
(11 minutes ago)
VFR
Clouds
  • Clear skies
Temperature Dewpoint
22°C / 72°F 22°C / 72°F
Humidity Altimeter Pressure
100% 29.95" Hg 1014.1 hPa